createdAt,value
2018-08-30T00:01:08.616Z,21.11
2018-08-30T00:03:42.625Z,21.07
2018-08-30T00:06:12.878Z,21.02
2018-08-30T00:08:42.667Z,20.97
2018-08-30T00:11:13.077Z,20.92
2018-08-30T00:13:42.866Z,20.86
2018-08-30T00:16:12.278Z,20.81
2018-08-30T00:18:43.916Z,20.75
2018-08-30T00:21:13.434Z,20.68
2018-08-30T00:23:42.825Z,20.63
2018-08-30T00:26:13.715Z,20.57
2018-08-30T00:28:44.171Z,20.55
2018-08-30T00:31:14.423Z,20.49
2018-08-30T00:33:44.866Z,20.47
2018-08-30T00:36:14.478Z,20.43
2018-08-30T00:38:43.827Z,20.40
2018-08-30T00:41:13.553Z,20.37
2018-08-30T00:43:43.895Z,20.35
2018-08-30T00:46:14.932Z,20.29
2018-08-30T00:48:44.337Z,20.16
2018-08-30T00:51:13.830Z,20.02
2018-08-30T00:53:43.248Z,19.85
2018-08-30T00:56:13.551Z,19.69
2018-08-30T00:58:43.923Z,19.53
2018-08-30T01:01:16.288Z,19.40
2018-08-30T01:03:45.687Z,19.29
2018-08-30T01:06:15.053Z,19.17
2018-08-30T01:08:44.517Z,19.09
2018-08-30T01:11:15.254Z,19.01
2018-08-30T01:13:44.660Z,18.93
2018-08-30T01:16:14.093Z,18.86
2018-08-30T01:18:47.323Z,18.80
2018-08-30T01:21:16.724Z,18.75
2018-08-30T01:23:46.125Z,18.72
2018-08-30T01:26:15.470Z,18.69
2018-08-30T01:28:45.270Z,18.66
2018-08-30T01:31:15.340Z,18.66
2018-08-30T01:33:44.838Z,18.67
2018-08-30T01:36:14.334Z,18.72
2018-08-30T01:38:43.690Z,18.72
2018-08-30T01:41:13.460Z,18.74
2018-08-30T01:43:42.827Z,18.75
2018-08-30T01:46:12.205Z,18.72
2018-08-30T01:48:42.582Z,18.75
2018-08-30T01:51:12.001Z,18.80
2018-08-30T01:53:41.362Z,18.85
2018-08-30T01:56:10.771Z,18.86
2018-08-30T01:58:40.189Z,18.86
2018-08-30T02:01:10.058Z,18.88
2018-08-30T02:03:39.466Z,18.85
2018-08-30T02:06:08.848Z,18.86
2018-08-30T02:08:38.259Z,18.84
2018-08-30T02:11:08.202Z,18.80
2018-08-30T02:13:39.000Z,18.74
2018-08-30T02:16:09.426Z,18.66
2018-08-30T02:18:40.561Z,18.62
2018-08-30T02:21:09.965Z,18.57
2018-08-30T02:23:39.354Z,18.48
2018-08-30T02:26:08.786Z,18.43
2018-08-30T02:28:39.499Z,18.39
2018-08-30T02:31:08.954Z,18.42
2018-08-30T02:33:38.379Z,18.41
2018-08-30T02:36:07.807Z,18.38
2018-08-30T02:38:37.222Z,18.32
2018-08-30T02:41:06.823Z,18.30
2018-08-30T02:43:36.563Z,18.27
2018-08-30T02:46:06.042Z,18.25
2018-08-30T02:48:35.425Z,18.21
2018-08-30T02:51:04.883Z,18.21
2018-08-30T02:53:35.358Z,18.20
2018-08-30T02:56:05.272Z,18.19
2018-08-30T02:58:34.813Z,18.16
2018-08-30T03:01:05.706Z,18.13
2018-08-30T03:03:36.494Z,18.16
2018-08-30T03:06:06.864Z,18.14
2018-08-30T03:08:36.296Z,18.10
2018-08-30T03:11:06.109Z,18.09
2018-08-30T03:13:36.472Z,18.09
2018-08-30T03:16:05.869Z,18.10
2018-08-30T03:18:35.257Z,18.07
2018-08-30T03:21:05.074Z,18.06
2018-08-30T03:23:34.999Z,18.06
2018-08-30T03:26:04.817Z,18.07
2018-08-30T03:28:34.198Z,18.07
2018-08-30T03:31:04.390Z,18.05
2018-08-30T03:33:34.139Z,18.03
2018-08-30T03:36:03.525Z,18.03
2018-08-30T03:38:33.046Z,18.03
2018-08-30T03:41:02.458Z,17.97
2018-08-30T03:43:33.350Z,17.95
2018-08-30T03:46:02.774Z,17.97
2018-08-30T03:48:32.191Z,17.97
2018-08-30T03:51:02.150Z,17.92
2018-08-30T03:53:32.830Z,17.87
2018-08-30T03:56:02.207Z,17.90
2018-08-30T03:58:34.627Z,17.79
2018-08-30T04:01:04.173Z,17.78
2018-08-30T04:03:34.963Z,17.73
2018-08-30T04:06:04.800Z,17.72
2018-08-30T04:08:34.185Z,17.67
2018-08-30T04:11:03.616Z,17.68
2018-08-30T04:13:34.423Z,17.64
2018-08-30T04:16:04.292Z,17.69
2018-08-30T04:18:34.290Z,17.68
2018-08-30T04:21:07.533Z,17.68
2018-08-30T04:23:36.932Z,17.66
2018-08-30T04:26:06.381Z,17.64
2018-08-30T04:28:36.863Z,17.64
2018-08-30T04:31:06.367Z,17.62
2018-08-30T04:33:35.782Z,17.62
2018-08-30T04:36:07.591Z,17.61
2018-08-30T04:38:37.246Z,17.65
2018-08-30T04:41:07.331Z,17.64
2018-08-30T04:43:37.147Z,17.68
2018-08-30T04:46:07.346Z,17.71
2018-08-30T04:48:37.884Z,17.69
2018-08-30T04:51:07.355Z,17.69
2018-08-30T04:53:52.481Z,17.66
2018-08-30T04:56:21.851Z,17.64
2018-08-30T04:58:52.198Z,17.63
2018-08-30T05:01:21.547Z,17.62
2018-08-30T05:03:51.065Z,17.58
2018-08-30T05:06:20.518Z,17.57
2018-08-30T05:08:50.283Z,17.55
2018-08-30T05:11:19.675Z,17.56
2018-08-30T05:13:49.067Z,17.58
2018-08-30T05:16:18.483Z,17.52
2018-08-30T05:18:48.074Z,17.50
2018-08-30T05:21:17.433Z,17.53
2018-08-30T05:23:48.250Z,17.56
2018-08-30T05:26:18.655Z,17.59
2018-08-30T05:28:48.039Z,17.61
2018-08-30T05:31:17.463Z,17.62
2018-08-30T05:33:46.900Z,17.60
2018-08-30T05:36:17.169Z,17.56
2018-08-30T05:38:46.502Z,17.57
2018-08-30T05:41:16.292Z,17.60
2018-08-30T05:43:45.657Z,17.60
2018-08-30T05:46:15.037Z,17.62
2018-08-30T05:48:44.888Z,17.64
2018-08-30T05:51:15.475Z,17.62
2018-08-30T05:53:44.838Z,17.65
2018-08-30T05:56:14.550Z,17.63
2018-08-30T05:58:43.930Z,17.66
2018-08-30T06:01:13.442Z,17.65
2018-08-30T06:03:43.130Z,17.65
2018-08-30T06:06:12.497Z,17.63
2018-08-30T06:08:41.912Z,17.60
2018-08-30T06:11:11.267Z,17.58
2018-08-30T06:13:40.964Z,17.60
2018-08-30T06:16:10.401Z,17.56
2018-08-30T06:18:39.876Z,17.57
2018-08-30T06:21:09.279Z,17.52
2018-08-30T06:23:39.144Z,17.50
2018-08-30T06:26:08.545Z,17.51
2018-08-30T06:28:37.930Z,17.50
2018-08-30T06:31:07.874Z,17.44
2018-08-30T06:33:37.524Z,17.48
2018-08-30T06:36:10.070Z,17.47
2018-08-30T06:38:40.558Z,17.44
2018-08-30T06:41:09.980Z,17.41
2018-08-30T06:43:40.033Z,17.39
2018-08-30T06:46:09.546Z,17.36
2018-08-30T06:48:39.258Z,17.26
2018-08-30T06:51:08.639Z,17.21
2018-08-30T06:53:38.277Z,17.16
2018-08-30T06:56:07.678Z,17.10
2018-08-30T06:58:38.172Z,17.06
2018-08-30T07:01:07.612Z,17.01
2018-08-30T07:03:37.310Z,16.99
2018-08-30T07:06:09.722Z,16.93
2018-08-30T07:08:40.159Z,16.92
2018-08-30T07:11:09.541Z,16.89
2018-08-30T07:13:38.948Z,16.87
2018-08-30T07:16:08.787Z,16.83
2018-08-30T07:18:38.695Z,16.82
2018-08-30T07:21:08.187Z,16.72
2018-08-30T07:23:39.891Z,16.69
2018-08-30T07:26:10.133Z,16.70
2018-08-30T07:28:40.181Z,16.71
2018-08-30T07:31:10.474Z,16.69
2018-08-30T07:33:40.866Z,16.69
2018-08-30T07:36:10.279Z,16.74
2018-08-30T07:38:41.680Z,16.71
2018-08-30T07:41:11.967Z,16.67
2018-08-30T07:43:43.113Z,16.66
2018-08-30T07:46:15.915Z,16.63
2018-08-30T07:48:45.740Z,16.66
2018-08-30T07:51:17.354Z,16.69
2018-08-30T07:53:46.878Z,16.66
2018-08-30T07:56:16.367Z,16.59
2018-08-30T07:58:45.774Z,16.59
2018-08-30T08:01:15.586Z,16.53
2018-08-30T08:03:49.466Z,16.43
2018-08-30T08:06:18.902Z,16.36
2018-08-30T08:08:49.367Z,16.36
2018-08-30T08:11:19.678Z,16.35
2018-08-30T08:13:50.996Z,16.33
2018-08-30T08:16:20.399Z,16.35
2018-08-30T08:18:52.280Z,16.30
2018-08-30T08:21:24.321Z,16.32
2018-08-30T08:23:55.790Z,16.26
2018-08-30T08:26:27.010Z,16.26
2018-08-30T08:28:57.425Z,16.24
2018-08-30T08:31:29.263Z,16.26
2018-08-30T08:33:59.338Z,16.34
2018-08-30T08:36:28.791Z,16.41
2018-08-30T08:38:59.688Z,16.43
2018-08-30T08:41:31.114Z,16.44
2018-08-30T08:44:00.501Z,16.42
2018-08-30T08:46:31.318Z,16.42
2018-08-30T08:49:00.738Z,16.44
2018-08-30T08:51:30.996Z,16.49
2018-08-30T08:54:01.269Z,16.51
2018-08-30T08:56:31.027Z,16.54
2018-08-30T08:59:01.249Z,16.54
2018-08-30T09:01:30.703Z,16.56
2018-08-30T09:04:01.885Z,16.52
2018-08-30T09:06:31.616Z,16.53
2018-08-30T09:09:01.700Z,16.52
2018-08-30T09:11:31.407Z,16.57
2018-08-30T09:14:00.838Z,16.59
2018-08-30T09:16:31.295Z,16.54
2018-08-30T09:19:01.402Z,16.59
2018-08-30T09:21:31.786Z,16.65
2018-08-30T09:24:02.103Z,16.69
2018-08-30T09:26:32.198Z,16.74
2018-08-30T09:29:02.002Z,16.81
2018-08-30T09:31:31.458Z,16.89
2018-08-30T09:34:01.093Z,16.95
2018-08-30T09:36:31.299Z,16.96
2018-08-30T09:39:10.100Z,17.00
2018-08-30T09:41:40.952Z,17.02
2018-08-30T09:44:10.402Z,16.96
2018-08-30T09:46:41.117Z,16.93
2018-08-30T09:49:11.861Z,16.95
2018-08-30T09:51:41.345Z,16.90
2018-08-30T09:54:11.416Z,16.88
2018-08-30T09:56:40.872Z,16.95
2018-08-30T09:59:10.323Z,17.02
2018-08-30T10:03:49.335Z,16.96
2018-08-30T10:06:18.742Z,16.86
2018-08-30T10:08:49.227Z,16.86
2018-08-30T10:11:19.111Z,16.83
2018-08-30T10:13:49.219Z,16.91
2018-08-30T10:16:18.630Z,16.89
2018-08-30T10:18:49.531Z,16.82
2018-08-30T10:21:20.318Z,16.69
2018-08-30T10:23:49.825Z,16.56
2018-08-30T10:26:19.203Z,16.47
2018-08-30T10:28:50.867Z,16.30
2018-08-30T10:31:20.274Z,16.07
2018-08-30T10:33:49.891Z,15.92
2018-08-30T10:36:20.800Z,15.89
2018-08-30T10:38:51.966Z,15.84
2018-08-30T10:41:21.771Z,15.78
2018-08-30T10:43:54.316Z,15.71
2018-08-30T10:46:26.502Z,15.72
2018-08-30T10:49:01.810Z,15.72
2018-08-30T10:51:33.279Z,15.74
2018-08-30T10:54:03.870Z,15.83
2018-08-30T10:56:33.719Z,15.89
2018-08-30T10:59:04.613Z,15.89
2018-08-30T11:01:34.038Z,15.95
2018-08-30T11:04:03.933Z,16.00
2018-08-30T11:06:33.426Z,16.09
2018-08-30T11:11:56.973Z,16.18
2018-08-30T11:14:27.051Z,16.23
2018-08-30T11:16:56.707Z,16.26
2018-08-30T11:19:27.119Z,16.25
2018-08-30T11:22:09.163Z,16.29
2018-08-30T11:24:41.341Z,16.32
2018-08-30T11:27:23.483Z,16.27
2018-08-30T11:29:53.105Z,16.32
2018-08-30T11:32:23.675Z,16.37
2018-08-30T11:34:53.585Z,16.44
2018-08-30T11:37:24.208Z,16.40
2018-08-30T11:39:55.295Z,16.36
2018-08-30T11:42:25.985Z,16.16
2018-08-30T11:44:55.659Z,16.07
2018-08-30T11:47:25.433Z,15.96
2018-08-30T11:49:55.567Z,15.87
2018-08-30T11:52:27.311Z,15.72
2018-08-30T11:54:58.939Z,15.71
2018-08-30T11:57:28.748Z,15.66
2018-08-30T12:00:00.322Z,15.64
2018-08-30T12:02:33.284Z,15.61
2018-08-30T12:05:08.062Z,15.69
2018-08-30T12:07:37.852Z,15.64
2018-08-30T12:10:07.821Z,15.66
2018-08-30T12:12:38.769Z,15.75
2018-08-30T12:15:09.722Z,15.82
2018-08-30T12:17:40.990Z,15.77
2018-08-30T12:20:10.784Z,15.78
2018-08-30T12:22:41.341Z,15.83
2018-08-30T12:25:14.837Z,15.84
2018-08-30T12:27:46.207Z,15.73
2018-08-30T12:30:16.367Z,15.75
2018-08-30T12:32:46.078Z,15.76
2018-08-30T12:35:15.848Z,15.79
2018-08-30T12:37:45.783Z,15.79
2018-08-30T12:40:15.729Z,15.79
2018-08-30T12:42:49.992Z,15.85
2018-08-30T12:45:19.558Z,15.81
2018-08-30T12:47:50.545Z,15.79
2018-08-30T12:50:23.394Z,15.81
2018-08-30T12:52:53.196Z,15.85
2018-08-30T12:55:26.377Z,15.85
2018-08-30T12:57:56.141Z,15.89
2018-08-30T13:00:26.963Z,15.84
2018-08-30T13:02:56.555Z,15.80
2018-08-30T13:05:28.459Z,15.83
2018-08-30T13:07:58.082Z,15.82
2018-08-30T13:10:30.597Z,15.75
2018-08-30T13:13:01.511Z,15.77
2018-08-30T13:15:32.094Z,15.64
2018-08-30T13:18:02.860Z,15.60
2018-08-30T13:20:33.529Z,15.61
2018-08-30T13:23:04.345Z,15.61
2018-08-30T13:25:36.757Z,15.69
2018-08-30T13:28:06.808Z,15.70
2018-08-30T13:30:38.022Z,15.72
2018-08-30T13:33:07.937Z,15.72
2018-08-30T13:35:41.176Z,15.77
2018-08-30T13:38:11.891Z,15.79
2018-08-30T13:40:45.536Z,15.88
2018-08-30T13:43:15.295Z,15.95
2018-08-30T13:45:45.972Z,15.95
2018-08-30T13:48:17.525Z,15.98
2018-08-30T13:50:47.426Z,16.02
2018-08-30T13:53:19.569Z,16.08
2018-08-30T13:55:49.660Z,16.19
2018-08-30T13:58:23.451Z,16.32
2018-08-30T14:01:00.392Z,16.44
2018-08-30T14:03:33.447Z,16.57
2018-08-30T14:08:51.176Z,16.73
2018-08-30T14:11:21.551Z,16.82
2018-08-30T14:13:51.293Z,16.81
2018-08-30T14:16:20.696Z,16.87
2018-08-30T14:18:51.201Z,16.88
2018-08-30T14:21:20.981Z,16.91
2018-08-30T14:23:53.552Z,16.91
2018-08-30T14:26:24.102Z,16.99
2018-08-30T14:28:58.926Z,17.04
2018-08-30T14:31:31.344Z,17.02
2018-08-30T14:34:01.922Z,17.02
2018-08-30T14:36:31.580Z,16.97
2018-08-30T14:39:01.249Z,16.96
2018-08-30T14:41:32.141Z,16.95
2018-08-30T14:44:01.903Z,16.91
2018-08-30T14:46:38.672Z,16.85
2018-08-30T14:49:08.987Z,16.84
2018-08-30T14:51:41.636Z,16.83
2018-08-30T14:54:13.155Z,16.83
2018-08-30T14:56:44.627Z,16.80
2018-08-30T14:59:18.055Z,16.79
2018-08-30T15:01:48.213Z,16.73
2018-08-30T15:04:18.622Z,16.75
2018-08-30T15:06:49.633Z,16.70
2018-08-30T15:09:20.956Z,16.70
2018-08-30T15:14:26.683Z,16.67
2018-08-30T15:17:00.935Z,16.69
2018-08-30T15:19:31.350Z,16.73
2018-08-30T15:22:03.704Z,16.77
2018-08-30T15:24:34.590Z,16.82
2018-08-30T15:27:07.235Z,16.88
2018-08-30T15:29:38.168Z,16.95
2018-08-30T15:32:08.133Z,17.02
2018-08-30T15:34:39.801Z,17.05
2018-08-30T15:37:09.598Z,17.06
2018-08-30T15:39:41.668Z,17.02
2018-08-30T15:42:12.829Z,16.98
2018-08-30T15:44:43.034Z,16.97
2018-08-30T15:47:12.760Z,16.94
2018-08-30T15:49:43.261Z,16.90
2018-08-30T15:52:13.399Z,16.91
2018-08-30T15:54:43.947Z,16.89
2018-08-30T15:57:15.041Z,16.91
2018-08-30T15:59:45.484Z,17.05
2018-08-30T16:02:21.410Z,17.21
2018-08-30T16:04:53.356Z,17.31
2018-08-30T16:07:23.028Z,17.32
2018-08-30T16:09:52.889Z,17.35
2018-08-30T16:12:23.646Z,17.29
2018-08-30T16:14:53.447Z,17.28
2018-08-30T16:20:05.345Z,17.20
2018-08-30T16:23:40.855Z,17.11
2018-08-30T16:26:10.629Z,17.00
2018-08-30T16:28:40.580Z,16.91
2018-08-30T16:31:11.101Z,16.86
2018-08-30T16:33:42.128Z,16.82
2018-08-30T16:36:13.706Z,16.79
2018-08-30T16:38:43.448Z,16.80
2018-08-30T16:41:15.162Z,16.77
2018-08-30T16:43:44.877Z,16.73
2018-08-30T16:46:16.532Z,16.72
2018-08-30T16:48:48.175Z,16.66
2018-08-30T16:51:20.320Z,16.64
2018-08-30T16:53:59.414Z,16.54
2018-08-30T16:56:29.512Z,16.45
2018-08-30T16:59:01.520Z,16.34
2018-08-30T17:01:33.291Z,16.27
2018-08-30T17:04:04.592Z,16.19
2018-08-30T17:06:34.506Z,16.12
2018-08-30T17:09:05.592Z,16.03
2018-08-30T17:11:40.088Z,15.90
2018-08-30T17:14:10.646Z,15.79
2018-08-30T17:16:41.204Z,15.72
2018-08-30T17:19:17.364Z,15.64
2018-08-30T17:21:47.930Z,15.56
2018-08-30T17:24:20.354Z,15.50
2018-08-30T17:26:52.917Z,15.47
2018-08-30T17:29:24.226Z,15.40
2018-08-30T17:31:54.823Z,15.34
2018-08-30T17:34:28.061Z,15.33
2018-08-30T17:36:58.513Z,15.26
2018-08-30T17:39:30.361Z,15.19
2018-08-30T17:42:00.921Z,15.16
2018-08-30T17:44:31.147Z,15.08
2018-08-30T17:47:04.342Z,15.01
2018-08-30T17:49:35.080Z,14.98
2018-08-30T17:52:08.388Z,14.94
2018-08-30T17:54:38.201Z,14.89
2018-08-30T17:57:07.788Z,14.80
2018-08-30T17:59:40.640Z,14.73
2018-08-30T18:02:10.321Z,14.69
2018-08-30T18:04:42.412Z,14.64
2018-08-30T18:07:14.424Z,14.58
2018-08-30T18:09:47.137Z,14.56
2018-08-30T18:12:26.390Z,14.55
2018-08-30T18:15:00.298Z,14.51
2018-08-30T18:17:32.006Z,14.50
2018-08-30T18:20:09.486Z,14.47
2018-08-30T18:25:24.811Z,14.36
2018-08-30T18:28:00.720Z,14.32
2018-08-30T18:30:31.232Z,14.27
2018-08-30T18:33:02.136Z,14.23
2018-08-30T18:35:32.161Z,14.12
2018-08-30T18:38:02.466Z,14.08
2018-08-30T18:40:35.443Z,14.04
2018-08-30T18:43:07.636Z,14.02
2018-08-30T18:45:38.604Z,14.00
2018-08-30T18:48:18.059Z,14.01
2018-08-30T18:50:47.756Z,14.00
2018-08-30T18:53:21.955Z,13.98
2018-08-30T18:55:52.343Z,14.01
2018-08-30T18:58:22.252Z,13.99
2018-08-30T19:00:59.404Z,14.02
2018-08-30T19:03:35.127Z,14.03
2018-08-30T19:06:04.749Z,14.03
2018-08-30T19:08:34.492Z,14.04
2018-08-30T19:11:04.091Z,14.03
2018-08-30T19:13:33.674Z,14.04
2018-08-30T19:16:11.646Z,14.01
2018-08-30T19:18:47.244Z,14.05
2018-08-30T19:21:16.848Z,14.07
2018-08-30T19:23:47.339Z,14.04
2018-08-30T19:26:18.239Z,14.05
2018-08-30T19:28:49.924Z,14.06
2018-08-30T19:31:21.335Z,14.08
2018-08-30T19:33:51.645Z,14.08
2018-08-30T19:36:28.611Z,14.10
2018-08-30T19:39:01.013Z,14.08
2018-08-30T19:41:35.257Z,14.04
2018-08-30T19:44:06.384Z,14.03
2018-08-30T19:46:38.952Z,13.99
2018-08-30T19:49:17.055Z,13.95
2018-08-30T19:51:46.780Z,13.89
2018-08-30T19:54:22.338Z,13.87
2018-08-30T19:56:53.485Z,13.85
2018-08-30T19:59:23.981Z,13.86
2018-08-30T20:01:54.017Z,13.87
2018-08-30T20:04:24.789Z,13.82
2018-08-30T20:06:58.306Z,13.82
2018-08-30T20:09:37.917Z,13.85
2018-08-30T20:12:10.370Z,13.84
2018-08-30T20:14:41.363Z,13.87
2018-08-30T20:17:11.695Z,13.87
2018-08-30T20:19:45.846Z,13.86
2018-08-30T20:22:21.397Z,13.82
2018-08-30T20:24:50.998Z,13.79
2018-08-30T20:27:21.194Z,13.78
2018-08-30T20:29:51.334Z,13.79
2018-08-30T20:32:20.920Z,13.80
2018-08-30T20:34:52.005Z,13.78
2018-08-30T20:37:21.643Z,13.74
2018-08-30T20:39:52.250Z,13.73
2018-08-30T20:42:23.873Z,13.70
2018-08-30T20:44:56.164Z,13.64
2018-08-30T20:47:31.523Z,13.60
2018-08-30T20:50:08.985Z,13.60
2018-08-30T20:52:52.512Z,13.57
2018-08-30T20:55:33.897Z,13.53
2018-08-30T20:58:06.149Z,13.50
2018-08-30T21:00:52.638Z,13.51
2018-08-30T21:03:25.551Z,13.47
2018-08-30T21:06:03.765Z,13.44
2018-08-30T21:08:43.376Z,13.43
2018-08-30T21:11:14.899Z,13.36
2018-08-30T21:13:46.077Z,13.31
2018-08-30T21:16:21.442Z,13.24
2018-08-30T21:18:54.553Z,13.15
2018-08-30T21:21:29.072Z,13.12
2018-08-30T21:24:05.731Z,13.01
2018-08-30T21:26:47.155Z,12.98
2018-08-30T21:29:25.235Z,12.92
2018-08-30T21:32:01.265Z,12.95
2018-08-30T21:34:43.577Z,12.95
2018-08-30T21:37:24.795Z,12.90
2018-08-30T21:39:57.018Z,12.83
2018-08-30T21:42:36.828Z,12.79
2018-08-30T21:45:14.277Z,12.77
2018-08-30T21:47:45.597Z,12.76
2018-08-30T21:50:20.990Z,12.72
2018-08-30T21:53:00.010Z,12.68
2018-08-30T21:55:29.657Z,12.65
2018-08-30T21:58:06.156Z,12.62
2018-08-30T22:00:36.360Z,12.56
2018-08-30T22:03:06.205Z,12.55
2018-08-30T22:05:37.208Z,12.53
2018-08-30T22:08:07.411Z,12.43
2018-08-30T22:10:37.117Z,12.41
2018-08-30T22:13:08.888Z,12.35
2018-08-30T22:15:38.591Z,12.34
2018-08-30T22:18:09.060Z,12.35
2018-08-30T22:20:38.661Z,12.31
2018-08-30T22:23:09.285Z,12.23
2018-08-30T22:25:40.585Z,12.21
2018-08-30T22:28:11.223Z,12.16
2018-08-30T22:30:40.885Z,12.16
2018-08-30T22:33:11.017Z,12.09
2018-08-30T22:35:40.634Z,12.08
2018-08-30T22:38:10.270Z,12.09
2018-08-30T22:40:39.938Z,12.11
2018-08-30T22:43:09.933Z,12.14
2018-08-30T22:45:41.379Z,12.13
2018-08-30T22:48:11.918Z,12.12
2018-08-30T22:50:41.555Z,12.05
2018-08-30T22:53:12.488Z,12.00
2018-08-30T22:55:44.480Z,11.92
2018-08-30T22:58:15.074Z,11.92
2018-08-30T23:00:45.657Z,11.84
2018-08-30T23:03:15.689Z,11.81
2018-08-30T23:05:46.160Z,11.78
2018-08-30T23:08:15.877Z,11.76
2018-08-30T23:10:45.458Z,11.76
2018-08-30T23:13:16.445Z,11.77
2018-08-30T23:15:48.685Z,11.75
2018-08-30T23:18:18.244Z,11.72
2018-08-30T23:20:48.197Z,11.66
2018-08-30T23:23:17.773Z,11.64
2018-08-30T23:25:47.990Z,11.64
2018-08-30T23:28:17.568Z,11.60
2018-08-30T23:30:47.501Z,11.57
2018-08-30T23:33:17.080Z,11.57
2018-08-30T23:35:47.228Z,11.53
2018-08-30T23:38:16.803Z,11.53
2018-08-30T23:40:46.381Z,11.47
2018-08-30T23:43:17.372Z,11.42
2018-08-30T23:45:47.995Z,11.43
2018-08-30T23:48:17.635Z,11.37
2018-08-30T23:50:47.193Z,11.34
2018-08-30T23:53:17.133Z,11.33
2018-08-30T23:55:48.290Z,11.28
2018-08-30T23:58:28.637Z,11.28
